Time;durP1;ratioP1;P1;durP2;ratioP2;P2;SDS_P1;SDS_P2;PMS_P1;PMS_P2;Temp;Humidity;BMP_temperature;BMP_pressure;BME280_temperature;BME280_humidity;BME280_pressure;Samples;Min_cycle;Max_cycle;Signal;HPM_P1;HPM_P2
2021/07/19 00:01:57;;;;;;;13.07;11.77;;;20.70;99.90;;;;;;4994760;28;20188;-65
2021/07/19 00:04:23;;;;;;;14.13;12.00;;;20.80;99.90;;;;;;4994706;28;20216;-66
2021/07/19 00:06:50;;;;;;;13.87;12.13;;;20.70;99.90;;;;;;4994939;28;20179;-66
2021/07/19 00:09:16;;;;;;;11.43;10.37;;;20.70;99.90;;;;;;4994467;28;20229;-66
2021/07/19 00:11:42;;;;;;;12.00;10.90;;;20.80;99.90;;;;;;4994152;28;20174;-65
2021/07/19 00:14:08;;;;;;;10.67;9.67;;;20.80;99.90;;;;;;4994312;28;20208;-67
2021/07/19 00:16:34;;;;;;;10.83;9.80;;;20.80;99.90;;;;;;4994560;28;20184;-66
2021/07/19 00:19:00;;;;;;;11.67;10.47;;;20.70;99.90;;;;;;4994033;28;20198;-65
2021/07/19 00:21:26;;;;;;;11.13;10.03;;;20.70;99.90;;;;;;4994169;28;20228;-64
2021/07/19 00:23:51;;;;;;;12.33;11.03;;;20.70;99.90;;;;;;4994095;28;20236;-65
2021/07/19 00:26:19;;;;;;;12.73;11.43;;;20.70;99.90;;;;;;4994170;28;20170;-66
2021/07/19 00:28:46;;;;;;;11.20;10.00;;;20.50;99.90;;;;;;4994395;28;20178;-65
2021/07/19 00:31:12;;;;;;;10.97;9.97;;;20.40;99.90;;;;;;4994268;28;20510;-66
2021/07/19 00:33:38;;;;;;;11.03;9.93;;;20.30;99.90;;;;;;4993822;28;20665;-64
2021/07/19 00:36:04;;;;;;;10.60;9.50;;;20.40;99.90;;;;;;4994269;28;20728;-66
2021/07/19 00:38:30;;;;;;;10.50;9.50;;;20.50;99.90;;;;;;4993896;28;20194;-67
2021/07/19 00:40:55;;;;;;;18.03;11.43;;;20.60;99.90;;;;;;4994078;28;20240;-66
2021/07/19 00:43:21;;;;;;;11.37;10.27;;;20.60;99.90;;;;;;4994017;28;20235;-65
2021/07/19 00:45:46;;;;;;;10.57;9.57;;;20.50;99.90;;;;;;4994349;28;20651;-65
2021/07/19 00:48:12;;;;;;;12.13;10.93;;;20.50;99.90;;;;;;4994510;28;20180;-66
2021/07/19 00:50:39;;;;;;;82.27;13.50;;;20.50;99.90;;;;;;4994557;28;20178;-65
2021/07/19 00:53:07;;;;;;;10.87;9.77;;;20.60;99.90;;;;;;4993798;28;20199;-66
2021/07/19 00:55:40;;;;;;;27.50;11.90;;;20.50;99.90;;;;;;4994101;28;20222;-65
2021/07/19 00:58:07;;;;;;;51.50;13.03;;;20.50;99.90;;;;;;4996109;28;20569;-65
2021/07/19 01:00:35;;;;;;;10.90;9.80;;;20.50;99.90;;;;;;4997835;28;20514;-66
2021/07/19 01:03:04;;;;;;;60.70;13.97;;;20.50;99.90;;;;;;4997124;28;20204;-66
2021/07/19 01:05:30;;;;;;;11.70;10.60;;;20.40;99.90;;;;;;4997994;28;20268;-65
2021/07/19 01:07:57;;;;;;;22.20;11.83;;;20.30;99.90;;;;;;4997282;28;20252;-65
2021/07/19 01:10:24;;;;;;;11.20;10.20;;;20.30;99.90;;;;;;4997544;28;20573;-66
2021/07/19 01:12:52;;;;;;;10.23;9.23;;;20.20;99.90;;;;;;4997417;28;20228;-67
2021/07/19 01:15:20;;;;;;;10.37;9.37;;;20.30;99.90;;;;;;4997687;28;20174;-66
2021/07/19 01:17:46;;;;;;;9.70;8.80;;;20.30;99.90;;;;;;4997690;28;20201;-65
2021/07/19 01:20:12;;;;;;;9.03;8.13;;;20.30;99.90;;;;;;4997139;28;20261;-66
2021/07/19 01:22:59;;;;;;;9.07;8.27;;;20.30;99.90;;;;;;4997083;28;20272;-66
2021/07/19 01:25:54;;;;;;;7.87;7.03;;;20.30;99.90;;;;;;4997269;28;20211;-66
2021/07/19 01:28:28;;;;;;;7.10;6.50;;;20.10;99.90;;;;;;4997559;28;20532;-65
2021/07/19 01:30:58;;;;;;;7.10;6.50;;;20.10;99.90;;;;;;4997010;28;20483;-65
2021/07/19 01:33:25;;;;;;;7.83;7.03;;;20.20;99.90;;;;;;4996966;28;20203;-65
2021/07/19 01:35:52;;;;;;;6.60;6.00;;;20.30;99.90;;;;;;4997297;28;20187;-65
2021/07/19 01:38:18;;;;;;;6.97;6.37;;;20.30;99.90;;;;;;4997321;28;20557;-65
2021/07/19 01:40:44;;;;;;;6.80;6.13;;;20.30;99.90;;;;;;4997371;28;20180;-64
2021/07/19 01:43:12;;;;;;;6.40;5.90;;;20.30;99.90;;;;;;4995140;28;20221;-65
2021/07/19 01:45:38;;;;;;;6.40;5.80;;;20.30;99.90;;;;;;4996809;28;20174;-65
2021/07/19 01:48:06;;;;;;;6.93;6.23;;;20.40;99.90;;;;;;4996787;28;20173;-65
2021/07/19 01:50:33;;;;;;;6.77;5.87;;;20.40;99.90;;;;;;4996267;28;20285;-65
2021/07/19 01:52:59;;;;;;;7.33;5.73;;;20.40;99.90;;;;;;4996256;28;20202;-65
2021/07/19 01:55:25;;;;;;;6.17;5.57;;;20.40;99.90;;;;;;4996358;28;20545;-65
2021/07/19 01:57:51;;;;;;;7.23;6.57;;;20.40;99.90;;;;;;4996559;28;20178;-66
2021/07/19 02:00:17;;;;;;;8.00;7.30;;;20.30;99.90;;;;;;4996225;28;20630;-65
2021/07/19 02:02:45;;;;;;;8.20;7.40;;;20.10;99.90;;;;;;4996277;28;20193;-65
2021/07/19 02:05:13;;;;;;;8.80;8.00;;;20.10;99.90;;;;;;4996337;28;20641;-66
2021/07/19 02:07:41;;;;;;;9.13;8.07;;;20.10;99.90;;;;;;4996027;28;20162;-65
2021/07/19 02:10:09;;;;;;;8.60;7.80;;;20.20;99.90;;;;;;4995223;28;20185;-65
2021/07/19 02:12:37;;;;;;;8.70;7.90;;;20.10;99.90;;;;;;4996054;28;20649;-66
2021/07/19 02:15:10;;;;;;;9.73;8.77;;;20.10;99.90;;;;;;4996640;28;20170;-66
2021/07/19 02:17:36;;;;;;;9.77;8.77;;;20.20;99.90;;;;;;4996588;28;20181;-66
2021/07/19 02:20:06;;;;;;;8.67;7.87;;;20.10;99.90;;;;;;4996158;28;20173;-66
2021/07/19 02:22:32;;;;;;;9.27;8.20;;;20.00;99.90;;;;;;4996406;28;20194;-65
2021/07/19 02:24:59;;;;;;;9.97;7.97;;;19.90;99.90;;;;;;4995975;28;20205;-65
2021/07/19 02:27:27;;;;;;;8.83;7.93;;;20.00;99.90;;;;;;4996104;28;20660;-65
2021/07/19 02:29:52;;;;;;;9.17;8.27;;;20.00;99.90;;;;;;4996149;28;20197;-66
2021/07/19 02:32:19;;;;;;;8.60;7.77;;;20.00;99.90;;;;;;4996100;28;20204;-66
2021/07/19 02:34:45;;;;;;;8.50;7.70;;;20.00;99.90;;;;;;4996375;28;20186;-66
2021/07/19 02:37:11;;;;;;;7.77;7.00;;;19.90;99.90;;;;;;4996329;28;20236;-64
2021/07/19 02:39:38;;;;;;;7.37;6.60;;;19.90;99.90;;;;;;4995744;28;20235;-65
2021/07/19 02:42:05;;;;;;;7.17;6.47;;;19.90;99.90;;;;;;4995674;28;20200;-65
2021/07/19 02:44:31;;;;;;;8.03;6.80;;;19.90;99.90;;;;;;4995788;28;20208;-66
2021/07/19 02:46:57;;;;;;;7.60;6.80;;;19.80;99.90;;;;;;4996025;28;20165;-64
2021/07/19 02:49:23;;;;;;;7.07;5.93;;;19.60;99.90;;;;;;4996132;28;20181;-64
2021/07/19 02:51:51;;;;;;;7.97;7.17;;;19.60;99.90;;;;;;4995505;28;20236;-65
2021/07/19 02:54:19;;;;;;;7.73;6.67;;;19.40;99.90;;;;;;4995322;28;20189;-65
2021/07/19 02:56:46;;;;;;;6.90;6.27;;;19.30;99.90;;;;;;4995701;28;20177;-65
2021/07/19 02:59:13;;;;;;;7.97;6.53;;;19.20;99.90;;;;;;4995332;28;20181;-65
2021/07/19 03:01:40;;;;;;;7.00;6.30;;;19.30;99.90;;;;;;4995403;28;20658;-64
2021/07/19 03:04:06;;;;;;;6.80;6.10;;;19.30;99.90;;;;;;4995043;28;20205;-65
2021/07/19 03:06:36;;;;;;;7.10;6.40;;;19.30;99.90;;;;;;4995131;28;20178;-65
2021/07/19 03:09:04;;;;;;;8.40;6.20;;;19.20;99.90;;;;;;4995234;28;20189;-66
2021/07/19 03:11:36;;;;;;;8.97;6.60;;;19.10;99.90;;;;;;4995438;28;20169;-65
2021/07/19 03:14:04;;;;;;;7.47;6.30;;;19.10;99.90;;;;;;4995359;28;20189;-65
2021/07/19 03:16:30;;;;;;;7.33;6.53;;;19.10;99.90;;;;;;4995590;28;20178;-65
2021/07/19 03:19:02;;;;;;;8.90;6.43;;;19.10;99.90;;;;;;4995166;28;20173;-64
2021/07/19 03:21:30;;;;;;;10.30;7.00;;;19.10;99.90;;;;;;4994597;28;20185;-66
2021/07/19 03:23:58;;;;;;;8.40;6.37;;;19.10;99.90;;;;;;4994789;28;20673;-64
2021/07/19 03:26:25;;;;;;;7.30;6.53;;;19.00;99.90;;;;;;4995280;28;20180;-65
2021/07/19 03:28:51;;;;;;;8.50;6.30;;;19.00;99.90;;;;;;4995389;28;20201;-64
2021/07/19 03:31:17;;;;;;;8.60;6.10;;;19.00;99.90;;;;;;4995213;28;20177;-65
2021/07/19 03:33:44;;;;;;;8.57;6.57;;;18.90;99.90;;;;;;4995068;28;20197;-65
2021/07/19 03:36:11;;;;;;;8.33;6.73;;;18.90;99.90;;;;;;4994676;28;20637;-64
2021/07/19 03:38:37;;;;;;;7.23;6.53;;;18.90;99.90;;;;;;4995151;28;20181;-66
2021/07/19 03:41:05;;;;;;;7.37;6.50;;;18.90;99.90;;;;;;4995178;28;20242;-64
2021/07/19 03:43:33;;;;;;;7.30;6.20;;;18.80;99.90;;;;;;4994349;28;20256;-65
2021/07/19 03:45:59;;;;;;;7.10;6.40;;;18.80;99.90;;;;;;4995047;28;20173;-65
2021/07/19 03:48:29;;;;;;;6.80;5.87;;;18.80;99.90;;;;;;4994675;28;20211;-64
2021/07/19 03:50:55;;;;;;;7.93;5.80;;;18.80;99.90;;;;;;4995138;28;20166;-65
2021/07/19 03:53:21;;;;;;;7.90;6.60;;;18.80;99.90;;;;;;4994679;28;20200;-65
2021/07/19 03:55:48;;;;;;;10.20;6.40;;;18.80;99.90;;;;;;4994838;28;20176;-66
2021/07/19 03:58:15;;;;;;;7.93;6.30;;;18.80;99.90;;;;;;4995005;28;20188;-66
2021/07/19 04:00:42;;;;;;;6.40;5.53;;;18.80;99.90;;;;;;4994486;28;20487;-65
2021/07/19 04:03:23;;;;;;;7.97;5.80;;;18.80;99.90;;;;;;4994217;28;20211;-64
2021/07/19 04:05:55;;;;;;;6.70;5.80;;;18.80;99.90;;;;;;4994837;28;20170;-65
2021/07/19 04:08:22;;;;;;;7.20;5.70;;;18.80;99.90;;;;;;4994578;28;20208;-64
2021/07/19 04:10:50;;;;;;;7.37;5.73;;;18.80;99.90;;;;;;4994299;28;20534;-65
2021/07/19 04:13:16;;;;;;;10.60;7.27;;;18.80;99.90;;;;;;4993894;28;20212;-64
2021/07/19 04:15:46;;;;;;;9.37;6.80;;;18.80;99.90;;;;;;4994699;28;20211;-65
2021/07/19 04:18:13;;;;;;;7.73;6.17;;;18.70;99.90;;;;;;4994235;28;20235;-65
2021/07/19 04:20:40;;;;;;;8.07;6.03;;;18.60;99.90;;;;;;4994543;28;20187;-65
2021/07/19 04:23:11;;;;;;;6.63;5.90;;;18.60;99.90;;;;;;5000094;28;20688;-66
2021/07/19 04:25:38;;;;;;;7.43;5.87;;;18.60;99.90;;;;;;5002659;28;20176;-64
2021/07/19 04:28:04;;;;;;;10.40;6.10;;;18.60;99.90;;;;;;5004711;28;20165;-66
2021/07/19 04:30:34;;;;;;;6.63;5.50;;;18.70;99.90;;;;;;5003352;28;20224;-64
2021/07/19 04:33:00;;;;;;;7.20;5.60;;;18.70;99.90;;;;;;5003755;28;20191;-66
2021/07/19 04:35:26;;;;;;;9.53;5.87;;;18.80;99.90;;;;;;5008106;28;20179;-66
2021/07/19 04:37:53;;;;;;;7.60;6.50;;;18.80;99.90;;;;;;5007366;28;20254;-65
2021/07/19 04:40:19;;;;;;;6.27;5.23;;;18.80;99.90;;;;;;5006541;28;20258;-66
2021/07/19 04:42:45;;;;;;;7.67;5.93;;;18.90;99.90;;;;;;5003718;28;20201;-66
2021/07/19 04:45:12;;;;;;;6.73;6.13;;;18.90;99.90;;;;;;5007212;28;20287;-65
2021/07/19 04:47:38;;;;;;;7.50;6.10;;;19.00;99.90;;;;;;5008015;28;20165;-65
2021/07/19 04:50:04;;;;;;;6.73;5.63;;;19.00;99.90;;;;;;5006127;28;20177;-65
2021/07/19 04:52:31;;;;;;;8.20;5.30;;;18.90;99.90;;;;;;5006894;28;20196;-66
2021/07/19 04:54:58;;;;;;;6.37;5.70;;;18.90;99.90;;;;;;5007565;28;20208;-64
2021/07/19 04:57:26;;;;;;;6.23;5.27;;;18.90;99.90;;;;;;5003291;28;20338;-66
2021/07/19 04:59:54;;;;;;;6.13;5.37;;;18.90;99.90;;;;;;5004430;28;20257;-64
2021/07/19 05:02:22;;;;;;;8.53;5.47;;;19.00;99.90;;;;;;4997420;28;20180;-64
2021/07/19 05:04:51;;;;;;;8.03;5.70;;;18.90;99.90;;;;;;5009516;28;20692;-65
2021/07/19 05:07:23;;;;;;;7.10;5.10;;;18.90;99.90;;;;;;5017182;28;20263;-66
2021/07/19 05:09:49;;;;;;;5.67;5.13;;;19.00;99.90;;;;;;5008094;28;20190;-64
2021/07/19 05:12:19;;;;;;;5.63;5.03;;;19.00;99.90;;;;;;5004859;28;20251;-65
2021/07/19 05:14:46;;;;;;;5.20;4.70;;;19.10;99.90;;;;;;4996359;28;20181;-65
2021/07/19 05:17:14;;;;;;;5.93;5.33;;;19.10;99.90;;;;;;4995335;28;20193;-64
2021/07/19 05:19:41;;;;;;;5.00;4.50;;;19.10;99.90;;;;;;4990026;28;20174;-65
2021/07/19 05:22:11;;;;;;;6.17;4.60;;;19.10;99.90;;;;;;4997213;28;20190;-66
2021/07/19 05:24:37;;;;;;;5.50;5.00;;;19.30;99.90;;;;;;4981678;28;20228;-66
2021/07/19 05:27:06;;;;;;;6.80;5.00;;;19.30;99.90;;;;;;4978000;28;20182;-66
2021/07/19 05:29:33;;;;;;;6.33;4.77;;;19.30;99.90;;;;;;4977515;28;20260;-66
2021/07/19 05:31:58;;;;;;;7.40;4.73;;;19.40;99.90;;;;;;4978294;28;20179;-66
2021/07/19 05:34:24;;;;;;;5.40;4.47;;;19.60;99.90;;;;;;4978471;28;20554;-64
2021/07/19 05:36:49;;;;;;;4.57;4.17;;;19.60;99.90;;;;;;4980996;28;20201;-66
2021/07/19 05:39:15;;;;;;;6.83;4.70;;;19.80;99.90;;;;;;4987783;28;20185;-66
2021/07/19 05:41:41;;;;;;;6.83;4.63;;;19.80;99.90;;;;;;5014392;28;20185;-66
2021/07/19 05:44:06;;;;;;;5.27;4.30;;;19.90;99.90;;;;;;5011607;28;20200;-66
2021/07/19 05:46:33;;;;;;;4.63;4.23;;;20.00;99.90;;;;;;4997246;28;20185;-64
2021/07/19 05:49:00;;;;;;;4.77;4.37;;;20.10;99.90;;;;;;4995678;28;20182;-67
2021/07/19 05:51:26;;;;;;;5.33;4.70;;;20.20;99.90;;;;;;4991839;28;20566;-65
2021/07/19 05:53:51;;;;;;;4.57;4.10;;;20.20;99.90;;;;;;4986420;28;20669;-66
2021/07/19 05:56:17;;;;;;;5.00;4.17;;;20.30;99.90;;;;;;4977272;28;20257;-66
2021/07/19 05:58:43;;;;;;;7.00;4.40;;;20.30;99.90;;;;;;4986162;28;20178;-65
2021/07/19 06:01:08;;;;;;;5.53;4.10;;;20.40;99.90;;;;;;5005232;28;20195;-66
2021/07/19 06:03:34;;;;;;;5.93;3.90;;;20.50;99.90;;;;;;5014978;28;20290;-66
2021/07/19 06:05:59;;;;;;;5.20;3.60;;;20.60;99.90;;;;;;4996694;28;20181;-65
2021/07/19 06:08:25;;;;;;;6.07;4.00;;;20.60;99.90;;;;;;4996219;28;20689;-65
2021/07/19 06:10:50;;;;;;;4.20;3.80;;;20.70;99.90;;;;;;4990390;28;20688;-66
2021/07/19 06:13:16;;;;;;;4.47;4.07;;;20.60;99.90;;;;;;4984585;28;20206;-65
2021/07/19 06:15:43;;;;;;;6.00;4.13;;;20.70;99.90;;;;;;4992134;28;20188;-67
2021/07/19 06:18:09;;;;;;;4.50;4.10;;;20.70;99.90;;;;;;5008714;28;20173;-66
2021/07/19 06:20:34;;;;;;;4.73;3.90;;;20.80;99.90;;;;;;5002386;28;20193;-66
2021/07/19 06:23:01;;;;;;;4.03;3.63;;;20.90;99.90;;;;;;5015301;28;20593;-66
2021/07/19 06:25:33;;;;;;;4.37;3.80;;;21.00;99.90;;;;;;4996701;28;20190;-67
2021/07/19 06:28:00;;;;;;;4.43;4.03;;;21.00;99.90;;;;;;5006387;28;20259;-65
2021/07/19 06:30:27;;;;;;;3.63;3.33;;;21.10;99.90;;;;;;5015005;28;20184;-66
2021/07/19 06:32:53;;;;;;;4.33;3.97;;;21.20;99.90;;;;;;4998097;28;20194;-67
2021/07/19 06:35:19;;;;;;;4.20;3.80;;;21.30;99.90;;;;;;4991558;28;20260;-65
2021/07/19 06:37:44;;;;;;;4.50;3.90;;;21.50;99.90;;;;;;5004297;28;20353;-66
2021/07/19 06:40:11;;;;;;;8.10;4.32;;;21.60;99.90;;;;;;4980150;28;20178;-65
2021/07/19 06:42:37;;;;;;;4.35;3.95;;;21.70;99.90;;;;;;4979771;28;20206;-65
2021/07/19 06:45:04;;;;;;;4.70;3.38;;;21.70;99.90;;;;;;4976254;28;20205;-65
2021/07/19 06:47:29;;;;;;;3.90;3.55;;;21.60;99.90;;;;;;4976163;28;20185;-65
2021/07/19 06:49:57;;;;;;;4.00;3.60;;;21.60;99.90;;;;;;4975817;28;20174;-65
2021/07/19 06:52:23;;;;;;;6.80;3.50;;;21.70;99.90;;;;;;4976026;28;20246;-66
2021/07/19 06:54:49;;;;;;;3.78;3.47;;;21.90;99.90;;;;;;4976067;28;20183;-66
2021/07/19 06:57:14;;;;;;;3.83;3.53;;;22.10;99.90;;;;;;4975902;28;20266;-64
2021/07/19 06:59:40;;;;;;;3.95;3.40;;;22.20;99.90;;;;;;4976204;28;20176;-64
2021/07/19 07:02:07;;;;;;;3.70;3.40;;;22.30;99.90;;;;;;4975944;28;20226;-65
2021/07/19 07:04:32;;;;;;;3.83;3.20;;;22.40;99.90;;;;;;4975812;28;20298;-65
2021/07/19 07:06:59;;;;;;;4.38;3.42;;;22.40;99.90;;;;;;4975957;28;20200;-64
2021/07/19 07:09:24;;;;;;;4.13;3.58;;;22.50;99.90;;;;;;4975514;28;20634;-65
2021/07/19 07:11:50;;;;;;;4.88;3.60;;;22.50;99.90;;;;;;4975930;28;20642;-65
2021/07/19 07:14:15;;;;;;;6.38;3.92;;;22.40;99.90;;;;;;4975760;28;20224;-65
2021/07/19 07:16:41;;;;;;;5.30;4.45;;;22.20;99.90;;;;;;4975629;28;20177;-65
2021/07/19 07:19:07;;;;;;;5.65;4.13;;;22.50;99.90;;;;;;4975729;28;20315;-64
2021/07/19 07:21:33;;;;;;;5.78;4.68;;;21.70;99.90;;;;;;4974391;28;20272;-65
2021/07/19 07:23:58;;;;;;;4.35;3.90;;;21.60;99.90;;;;;;4974743;28;20275;-66
2021/07/19 07:26:26;;;;;;;6.10;4.78;;;21.70;99.90;;;;;;4976073;28;20185;-65
2021/07/19 07:28:52;;;;;;;5.18;4.40;;;21.90;99.90;;;;;;4976057;28;20187;-66
2021/07/19 07:31:18;;;;;;;4.47;3.97;;;22.00;99.90;;;;;;4975209;28;20225;-65
2021/07/19 07:33:44;;;;;;;7.30;4.20;;;22.30;99.90;;;;;;4975383;28;20201;-66
2021/07/19 07:36:09;;;;;;;4.47;3.85;;;22.30;99.90;;;;;;4975668;28;20182;-64
2021/07/19 07:38:35;;;;;;;5.25;3.97;;;22.30;99.90;;;;;;4975530;28;20182;-65
2021/07/19 07:41:02;;;;;;;4.57;4.18;;;22.30;99.90;;;;;;4975839;28;20260;-64
2021/07/19 07:43:27;;;;;;;5.75;3.88;;;22.50;99.90;;;;;;4975053;28;20693;-65
2021/07/19 07:45:54;;;;;;;6.38;4.28;;;22.50;99.90;;;;;;4975414;28;20178;-65
2021/07/19 07:48:19;;;;;;;4.05;3.58;;;22.70;99.90;;;;;;4975305;28;20256;-65
2021/07/19 07:50:45;;;;;;;4.88;3.80;;;22.80;99.90;;;;;;4975123;28;20202;-64
2021/07/19 07:53:11;;;;;;;6.13;4.03;;;23.50;99.90;;;;;;4975023;28;20202;-66
2021/07/19 07:55:37;;;;;;;4.22;3.80;;;23.40;99.90;;;;;;4975209;28;20197;-65
2021/07/19 07:58:06;;;;;;;6.03;4.07;;;23.60;99.90;;;;;;4975405;28;20177;-65
2021/07/19 08:00:32;;;;;;;4.95;4.30;;;23.60;99.90;;;;;;4975378;28;20174;-66
2021/07/19 08:02:58;;;;;;;5.05;4.03;;;23.50;99.90;;;;;;4974796;28;20201;-66
2021/07/19 08:05:23;;;;;;;4.00;3.60;;;23.70;99.90;;;;;;4975134;28;20615;-65
2021/07/19 08:07:49;;;;;;;4.82;3.72;;;23.90;99.90;;;;;;4977308;28;20170;-64
2021/07/19 08:10:15;;;;;;;4.15;3.70;;;24.00;99.90;;;;;;4979314;28;20178;-65
2021/07/19 08:12:43;;;;;;;4.85;3.53;;;24.10;99.90;;;;;;4978721;28;20550;-65
2021/07/19 08:15:10;;;;;;;4.13;3.72;;;24.10;99.90;;;;;;4979074;28;20170;-65
2021/07/19 08:17:36;;;;;;;4.50;3.80;;;24.00;99.90;;;;;;4978311;28;20256;-66
2021/07/19 08:20:02;;;;;;;5.32;3.67;;;24.00;99.90;;;;;;4979060;28;20166;-65
2021/07/19 08:22:28;;;;;;;3.97;3.58;;;24.10;99.90;;;;;;4978452;28;20181;-66
2021/07/19 08:24:53;;;;;;;4.78;4.30;;;24.10;99.90;;;;;;4978788;28;20604;-67
2021/07/19 08:27:19;;;;;;;5.28;4.10;;;24.10;99.90;;;;;;4978718;28;20170;-66
2021/07/19 08:29:45;;;;;;;7.07;3.80;;;23.90;99.90;;;;;;4978779;28;20174;-65
2021/07/19 08:32:10;;;;;;;5.20;3.90;;;24.10;99.90;;;;;;4978478;28;20173;-65
2021/07/19 08:34:36;;;;;;;6.70;3.67;;;24.20;99.90;;;;;;4978996;28;20174;-66
2021/07/19 08:37:02;;;;;;;4.57;3.25;;;24.20;99.90;;;;;;4978355;28;20230;-65
2021/07/19 08:39:27;;;;;;;3.80;3.50;;;24.40;99.90;;;;;;4976775;28;20605;-66
2021/07/19 08:41:53;;;;;;;3.40;3.10;;;24.60;99.90;;;;;;4976746;28;20196;-67
2021/07/19 08:44:19;;;;;;;5.30;3.47;;;24.60;99.90;;;;;;4976673;28;20461;-65
2021/07/19 08:46:45;;;;;;;4.32;3.40;;;24.50;99.90;;;;;;4976741;28;20182;-66
2021/07/19 08:49:11;;;;;;;3.63;3.22;;;24.40;99.90;;;;;;4976685;28;20177;-65
2021/07/19 08:51:44;;;;;;;4.30;3.00;;;24.30;99.90;;;;;;4976534;28;20174;-65
2021/07/19 08:54:11;;;;;;;4.72;3.10;;;24.30;99.90;;;;;;4977702;28;20198;-67
2021/07/19 08:56:39;;;;;;;2.97;2.75;;;24.20;99.90;;;;;;4978255;28;20185;-66
2021/07/19 08:59:07;;;;;;;4.03;2.78;;;24.30;99.90;;;;;;4978533;28;20615;-67
2021/07/19 09:01:34;;;;;;;3.58;2.70;;;24.30;99.90;;;;;;4977992;28;20174;-65
2021/07/19 09:04:00;;;;;;;2.90;2.60;;;24.40;99.90;;;;;;4978420;28;20309;-65
2021/07/19 09:06:26;;;;;;;3.63;2.97;;;24.20;99.90;;;;;;4978577;28;20599;-66
2021/07/19 09:08:53;;;;;;;2.90;2.38;;;24.10;99.90;;;;;;4977878;28;20229;-66
2021/07/19 09:11:20;;;;;;;2.90;2.60;;;24.30;99.90;;;;;;4978364;28;20623;-66
2021/07/19 09:14:06;;;;;;;3.15;2.65;;;24.40;99.90;;;;;;4978035;28;20210;-65
2021/07/19 09:16:58;;;;;;;2.72;2.53;;;24.40;99.90;;;;;;4978484;28;20551;-66
2021/07/19 09:19:26;;;;;;;3.00;2.35;;;24.50;99.90;;;;;;4975202;28;20198;-65
2021/07/19 09:21:57;;;;;;;3.83;2.70;;;24.60;99.90;;;;;;4978160;28;20169;-65
2021/07/19 09:24:24;;;;;;;4.43;2.25;;;24.80;99.90;;;;;;4977855;28;20206;-67
2021/07/19 09:26:52;;;;;;;5.30;2.63;;;25.10;99.90;;;;;;4978115;28;20182;-65
2021/07/19 09:29:19;;;;;;;2.90;2.22;;;25.30;99.90;;;;;;4978188;28;20181;-65
2021/07/19 09:31:56;;;;;;;2.30;2.10;;;25.80;99.90;;;;;;4978051;28;20174;-65
2021/07/19 09:34:24;;;;;;;2.72;2.28;;;25.80;99.90;;;;;;4977632;28;20519;-66
2021/07/19 09:37:06;;;;;;;2.30;2.10;;;25.60;99.90;;;;;;4977937;28;20609;-65
2021/07/19 09:39:43;;;;;;;4.35;2.20;;;25.50;99.90;;;;;;4977839;28;20178;-66
2021/07/19 09:42:14;;;;;;;4.40;2.40;;;25.30;99.90;;;;;;4977446;28;20248;-65
2021/07/19 09:44:41;;;;;;;5.40;2.70;;;25.20;99.90;;;;;;4977103;28;20566;-66
2021/07/19 09:47:09;;;;;;;3.42;2.47;;;25.20;99.90;;;;;;4977560;28;20536;-65
2021/07/19 09:49:36;;;;;;;2.85;2.50;;;25.20;99.90;;;;;;4976560;28;20174;-65
2021/07/19 09:52:08;;;;;;;3.10;2.80;;;25.20;99.90;;;;;;4976372;28;20174;-65
2021/07/19 09:54:42;;;;;;;3.85;2.40;;;25.10;99.90;;;;;;4976202;28;20221;-65
2021/07/19 09:57:09;;;;;;;3.28;2.40;;;25.00;99.90;;;;;;4977191;28;20518;-66
2021/07/19 09:59:55;;;;;;;2.88;2.20;;;24.90;99.90;;;;;;4977165;28;20626;-65
2021/07/19 10:02:30;;;;;;;4.28;2.78;;;25.20;99.90;;;;;;4977313;28;20500;-66
2021/07/19 10:04:56;;;;;;;6.90;2.80;;;25.40;99.90;;;;;;4975834;28;20301;-65
2021/07/19 10:07:25;;;;;;;2.47;2.28;;;25.30;99.90;;;;;;4976053;28;20625;-66
2021/07/19 10:09:58;;;;;;;2.70;2.45;;;25.30;99.90;;;;;;4974831;28;20214;-64
2021/07/19 10:12:24;;;;;;;2.70;2.45;;;25.20;99.90;;;;;;4993421;28;20169;-66
2021/07/19 10:14:51;;;;;;;3.22;2.45;;;25.40;99.90;;;;;;4995912;28;20258;-66
2021/07/19 10:17:17;;;;;;;3.25;2.90;;;25.30;99.90;;;;;;4996662;28;20220;-66
2021/07/19 10:19:43;;;;;;;4.30;3.10;;;25.30;99.90;;;;;;4995679;28;20173;-64
2021/07/19 10:22:13;;;;;;;4.18;3.15;;;25.40;99.90;;;;;;4993230;28;20180;-64
2021/07/19 10:24:43;;;;;;;7.05;2.83;;;25.40;99.90;;;;;;4996081;28;20272;-65
2021/07/19 10:27:19;;;;;;;2.72;2.40;;;25.40;99.90;;;;;;4978433;28;20161;-66
2021/07/19 10:29:48;;;;;;;4.35;2.90;;;25.40;99.90;;;;;;4993357;28;20181;-66
2021/07/19 10:32:20;;;;;;;4.25;2.60;;;25.40;99.90;;;;;;4993535;28;20660;-66
2021/07/19 10:34:54;;;;;;;3.97;2.90;;;25.70;99.90;;;;;;4996029;28;20184;-65
2021/07/19 10:37:24;;;;;;;4.60;3.10;;;25.80;99.90;;;;;;4995019;28;20211;-67
2021/07/19 10:39:54;;;;;;;4.68;2.95;;;25.80;99.90;;;;;;4995304;28;20514;-67
2021/07/19 10:42:21;;;;;;;3.25;2.95;;;25.70;99.90;;;;;;4995106;28;20161;-66
2021/07/19 10:44:47;;;;;;;7.30;3.30;;;25.90;99.90;;;;;;4995556;28;20204;-66
2021/07/19 10:47:15;;;;;;;3.50;3.20;;;26.00;99.90;;;;;;4994853;28;20169;-66
2021/07/19 10:49:41;;;;;;;4.45;2.88;;;26.00;99.90;;;;;;4995402;28;20518;-67
2021/07/19 10:52:12;;;;;;;3.13;2.83;;;26.30;99.90;;;;;;4994885;28;20170;-66
2021/07/19 10:54:49;;;;;;;5.78;3.30;;;26.50;99.90;;;;;;4995836;28;20620;-67
2021/07/19 10:57:17;;;;;;;4.75;3.03;;;26.70;99.90;;;;;;4995300;28;20705;-65
2021/07/19 10:59:44;;;;;;;4.97;3.20;;;26.60;99.90;;;;;;4995758;28;20185;-65
2021/07/19 11:02:26;;;;;;;5.50;3.28;;;26.40;99.90;;;;;;4994223;28;20185;-67
2021/07/19 11:04:52;;;;;;;3.80;2.95;;;26.60;99.90;;;;;;4995626;28;20197;-66
2021/07/19 11:07:17;;;;;;;4.55;2.85;;;26.90;99.90;;;;;;4995154;28;20527;-67
2021/07/19 11:09:43;;;;;;;3.47;2.60;;;26.90;99.90;;;;;;4994449;28;20201;-66
2021/07/19 11:12:11;;;;;;;4.70;2.88;;;26.70;99.90;;;;;;4994892;28;20196;-66
2021/07/19 11:14:48;;;;;;;3.72;2.78;;;26.40;99.90;;;;;;4994246;28;20169;-66
2021/07/19 11:17:16;;;;;;;4.82;3.15;;;26.30;99.90;;;;;;4993800;28;20173;-66
2021/07/19 11:19:42;;;;;;;5.55;3.00;;;26.20;99.90;;;;;;4993787;28;20204;-65
2021/07/19 11:22:28;;;;;;;4.85;3.03;;;26.50;99.90;;;;;;4995367;28;20599;-65
2021/07/19 11:25:14;;;;;;;3.95;2.95;;;26.70;99.90;;;;;;4994933;28;20209;-65
2021/07/19 11:27:43;;;;;;;4.75;3.25;;;26.70;99.90;;;;;;4995422;28;20176;-66
2021/07/19 11:30:21;;;;;;;6.47;3.08;;;26.70;99.90;;;;;;4995483;28;20224;-65
2021/07/19 11:32:46;;;;;;;5.20;2.70;;;26.60;99.90;;;;;;4994155;28;20265;-65
2021/07/19 11:35:15;;;;;;;5.55;2.80;;;26.60;99.90;;;;;;4995021;28;20204;-66
2021/07/19 11:37:44;;;;;;;3.70;3.00;;;26.70;99.90;;;;;;4994848;28;20177;-66
2021/07/19 11:40:11;;;;;;;5.40;3.10;;;26.80;99.90;;;;;;4994835;28;20166;-66
2021/07/19 11:42:43;;;;;;;4.57;3.00;;;26.50;99.90;;;;;;4994271;28;20193;-66
2021/07/19 11:45:10;;;;;;;4.72;2.85;;;26.30;99.90;;;;;;4994645;28;20247;-65
2021/07/19 11:47:47;;;;;;;3.55;2.72;;;26.10;99.90;;;;;;4994920;28;20197;-65
2021/07/19 11:50:19;;;;;;;4.45;2.70;;;26.10;99.90;;;;;;4994922;28;20173;-65
2021/07/19 11:52:47;;;;;;;3.72;2.90;;;26.20;99.90;;;;;;4994586;28;20189;-65
2021/07/19 11:55:15;;;;;;;7.38;3.20;;;26.10;99.90;;;;;;4994890;28;20179;-67
2021/07/19 11:57:43;;;;;;;7.75;3.10;;;26.30;99.90;;;;;;4994758;28;20645;-67
2021/07/19 12:00:11;;;;;;;3.20;2.65;;;26.40;99.90;;;;;;4994764;28;20177;-66
2021/07/19 12:02:36;;;;;;;3.10;2.80;;;26.50;99.90;;;;;;4994474;28;20238;-66
2021/07/19 12:05:02;;;;;;;4.40;3.17;;;26.70;99.90;;;;;;4994720;28;20291;-66
2021/07/19 12:07:28;;;;;;;4.93;2.90;;;26.80;99.90;;;;;;4994071;28;20192;-65
2021/07/19 12:10:01;;;;;;;3.65;3.00;;;26.90;99.90;;;;;;4994011;28;20193;-66
2021/07/19 12:12:28;;;;;;;4.95;3.10;;;26.70;99.90;;;;;;4993363;28;20197;-66
2021/07/19 12:14:58;;;;;;;5.22;3.10;;;26.50;99.90;;;;;;4992200;28;20181;-66
2021/07/19 12:17:36;;;;;;;4.40;2.78;;;26.60;99.90;;;;;;4992180;28;20180;-66
2021/07/19 12:20:03;;;;;;;3.33;3.00;;;26.50;99.90;;;;;;4992253;28;20212;-65
2021/07/19 12:22:32;;;;;;;6.00;2.80;;;26.40;99.90;;;;;;4991826;28;20180;-66
2021/07/19 12:24:58;;;;;;;5.00;2.88;;;26.40;99.90;;;;;;4991954;28;20610;-65
2021/07/19 12:27:24;;;;;;;3.63;2.88;;;26.40;99.90;;;;;;4992400;28;20170;-66
2021/07/19 12:29:51;;;;;;;4.25;3.10;;;26.70;99.90;;;;;;4994607;28;20180;-66
2021/07/19 12:32:18;;;;;;;4.72;3.00;;;26.90;99.90;;;;;;4994239;28;20166;-65
2021/07/19 12:34:45;;;;;;;3.90;2.97;;;27.00;99.90;;;;;;4994825;28;20257;-66
2021/07/19 12:37:17;;;;;;;5.00;3.28;;;27.20;99.90;;;;;;4994807;28;20189;-66
2021/07/19 12:39:47;;;;;;;3.65;3.00;;;27.10;99.90;;;;;;4994480;28;20178;-64
2021/07/19 12:42:16;;;;;;;6.00;3.00;;;27.00;99.90;;;;;;4994143;28;20259;-65
2021/07/19 12:44:50;;;;;;;6.88;3.20;;;27.10;99.90;;;;;;4994502;28;20209;-65
2021/07/19 12:47:18;;;;;;;4.55;2.78;;;27.00;99.90;;;;;;4994733;28;20165;-65
2021/07/19 12:49:44;;;;;;;3.00;2.70;;;26.90;99.90;;;;;;4994286;28;20341;-65